sensor_id;sensor_type;location;lat;lon;timestamp;temperature;humidity
25092;DHT22;13082;52.374;4.946;2024-03-29T00:00:45;10.50;99.90
25092;DHT22;13082;52.374;4.946;2024-03-29T00:03:10;10.50;99.90
25092;DHT22;13082;52.374;4.946;2024-03-29T00:05:36;10.50;99.90
25092;DHT22;13082;52.374;4.946;2024-03-29T00:08:03;10.50;99.90
25092;DHT22;13082;52.374;4.946;2024-03-29T00:10:29;10.50;99.90
25092;DHT22;13082;52.374;4.946;2024-03-29T00:12:55;10.50;99.90
25092;DHT22;13082;52.374;4.946;2024-03-29T00:15:20;10.40;99.90
25092;DHT22;13082;52.374;4.946;2024-03-29T00:17:46;10.40;99.90
25092;DHT22;13082;52.374;4.946;2024-03-29T00:20:12;10.40;99.90
25092;DHT22;13082;52.374;4.946;2024-03-29T00:22:38;10.40;99.90
25092;DHT22;13082;52.374;4.946;2024-03-29T00:25:04;10.40;99.90
25092;DHT22;13082;52.374;4.946;2024-03-29T00:27:29;10.40;99.90
25092;DHT22;13082;52.374;4.946;2024-03-29T00:29:56;10.40;99.90
25092;DHT22;13082;52.374;4.946;2024-03-29T00:32:22;10.40;99.90
25092;DHT22;13082;52.374;4.946;2024-03-29T00:34:52;10.40;99.90
25092;DHT22;13082;52.374;4.946;2024-03-29T00:37:18;10.40;99.90
25092;DHT22;13082;52.374;4.946;2024-03-29T00:39:44;10.40;99.90
25092;DHT22;13082;52.374;4.946;2024-03-29T00:42:10;10.40;99.90
25092;DHT22;13082;52.374;4.946;2024-03-29T00:44:38;10.40;99.90
25092;DHT22;13082;52.374;4.946;2024-03-29T00:47:05;10.30;99.90
25092;DHT22;13082;52.374;4.946;2024-03-29T00:49:30;10.30;99.90
25092;DHT22;13082;52.374;4.946;2024-03-29T00:51:56;10.20;99.90
25092;DHT22;13082;52.374;4.946;2024-03-29T00:54:22;10.20;99.90
25092;DHT22;13082;52.374;4.946;2024-03-29T00:56:50;10.20;99.90
25092;DHT22;13082;52.374;4.946;2024-03-29T00:59:16;10.20;99.90
25092;DHT22;13082;52.374;4.946;2024-03-29T01:01:42;10.20;99.90
25092;DHT22;13082;52.374;4.946;2024-03-29T01:04:08;10.20;99.90
25092;DHT22;13082;52.374;4.946;2024-03-29T01:06:34;10.20;99.90
25092;DHT22;13082;52.374;4.946;2024-03-29T01:09:03;10.20;99.90
25092;DHT22;13082;52.374;4.946;2024-03-29T01:11:29;10.30;99.90
25092;DHT22;13082;52.374;4.946;2024-03-29T01:13:55;10.30;99.90
25092;DHT22;13082;52.374;4.946;2024-03-29T01:16:21;10.30;99.90
25092;DHT22;13082;52.374;4.946;2024-03-29T01:18:46;10.30;99.90
25092;DHT22;13082;52.374;4.946;2024-03-29T01:21:12;10.30;99.90
25092;DHT22;13082;52.374;4.946;2024-03-29T01:23:38;10.20;99.90
25092;DHT22;13082;52.374;4.946;2024-03-29T01:26:05;10.20;99.90
25092;DHT22;13082;52.374;4.946;2024-03-29T01:28:31;10.30;99.90
25092;DHT22;13082;52.374;4.946;2024-03-29T01:30:57;10.30;99.90
25092;DHT22;13082;52.374;4.946;2024-03-29T01:33:24;10.30;99.90
25092;DHT22;13082;52.374;4.946;2024-03-29T01:35:50;10.30;99.90
25092;DHT22;13082;52.374;4.946;2024-03-29T01:38:15;10.30;99.90
25092;DHT22;13082;52.374;4.946;2024-03-29T01:40:41;10.30;99.90
25092;DHT22;13082;52.374;4.946;2024-03-29T01:43:07;10.30;99.90
25092;DHT22;13082;52.374;4.946;2024-03-29T01:45:35;10.30;99.90
25092;DHT22;13082;52.374;4.946;2024-03-29T01:48:04;10.30;99.90
25092;DHT22;13082;52.374;4.946;2024-03-29T01:50:30;10.30;99.90
25092;DHT22;13082;52.374;4.946;2024-03-29T01:52:56;10.30;99.90
25092;DHT22;13082;52.374;4.946;2024-03-29T01:55:22;10.30;99.90
25092;DHT22;13082;52.374;4.946;2024-03-29T01:57:48;10.20;99.90
25092;DHT22;13082;52.374;4.946;2024-03-29T02:00:14;10.20;99.90
25092;DHT22;13082;52.374;4.946;2024-03-29T02:02:40;10.20;99.90
25092;DHT22;13082;52.374;4.946;2024-03-29T02:05:05;10.20;99.90
25092;DHT22;13082;52.374;4.946;2024-03-29T02:07:32;10.20;99.90
25092;DHT22;13082;52.374;4.946;2024-03-29T02:09:58;10.20;99.90
25092;DHT22;13082;52.374;4.946;2024-03-29T02:12:23;10.20;99.90
25092;DHT22;13082;52.374;4.946;2024-03-29T02:14:49;10.20;99.90
25092;DHT22;13082;52.374;4.946;2024-03-29T02:17:14;10.20;99.90
25092;DHT22;13082;52.374;4.946;2024-03-29T02:19:40;10.20;99.90
25092;DHT22;13082;52.374;4.946;2024-03-29T02:22:07;10.20;99.90
25092;DHT22;13082;52.374;4.946;2024-03-29T02:24:36;10.20;99.90
25092;DHT22;13082;52.374;4.946;2024-03-29T02:27:02;10.20;99.90
25092;DHT22;13082;52.374;4.946;2024-03-29T02:29:29;10.20;99.90
25092;DHT22;13082;52.374;4.946;2024-03-29T02:31:55;10.20;99.90
25092;DHT22;13082;52.374;4.946;2024-03-29T02:34:20;10.20;99.90
25092;DHT22;13082;52.374;4.946;2024-03-29T02:36:46;10.20;99.90
25092;DHT22;13082;52.374;4.946;2024-03-29T02:39:11;10.20;99.90
25092;DHT22;13082;52.374;4.946;2024-03-29T02:41:37;10.10;99.90
25092;DHT22;13082;52.374;4.946;2024-03-29T02:44:02;10.10;99.90
25092;DHT22;13082;52.374;4.946;2024-03-29T02:46:28;10.10;99.90
25092;DHT22;13082;52.374;4.946;2024-03-29T02:48:54;10.10;99.90
25092;DHT22;13082;52.374;4.946;2024-03-29T02:51:19;10.10;99.90
25092;DHT22;13082;52.374;4.946;2024-03-29T02:53:45;10.10;99.90
25092;DHT22;13082;52.374;4.946;2024-03-29T02:56:10;10.10;99.90
25092;DHT22;13082;52.374;4.946;2024-03-29T02:58:36;10.10;99.90
25092;DHT22;13082;52.374;4.946;2024-03-29T03:01:07;10.10;99.90
25092;DHT22;13082;52.374;4.946;2024-03-29T03:03:33;10.10;99.90
25092;DHT22;13082;52.374;4.946;2024-03-29T03:05:58;10.10;99.90
25092;DHT22;13082;52.374;4.946;2024-03-29T03:08:24;10.10;99.90
25092;DHT22;13082;52.374;4.946;2024-03-29T03:11:08;10.10;99.90
25092;DHT22;13082;52.374;4.946;2024-03-29T03:13:34;10.00;99.90
25092;DHT22;13082;52.374;4.946;2024-03-29T03:15:59;10.00;99.90
25092;DHT22;13082;52.374;4.946;2024-03-29T03:18:25;10.00;99.90
25092;DHT22;13082;52.374;4.946;2024-03-29T03:20:54;10.00;99.90
25092;DHT22;13082;52.374;4.946;2024-03-29T03:23:20;10.00;99.90
25092;DHT22;13082;52.374;4.946;2024-03-29T03:25:54;10.00;99.90
25092;DHT22;13082;52.374;4.946;2024-03-29T03:28:20;9.90;99.90
25092;DHT22;13082;52.374;4.946;2024-03-29T03:30:45;10.00;99.90
25092;DHT22;13082;52.374;4.946;2024-03-29T03:33:11;10.00;99.90
25092;DHT22;13082;52.374;4.946;2024-03-29T03:35:37;10.00;99.90
25092;DHT22;13082;52.374;4.946;2024-03-29T03:38:02;10.00;99.90
25092;DHT22;13082;52.374;4.946;2024-03-29T03:40:28;10.00;99.90
25092;DHT22;13082;52.374;4.946;2024-03-29T03:42:53;10.10;99.90
25092;DHT22;13082;52.374;4.946;2024-03-29T03:45:20;10.00;99.90
25092;DHT22;13082;52.374;4.946;2024-03-29T03:47:45;10.00;99.90
25092;DHT22;13082;52.374;4.946;2024-03-29T03:50:11;10.10;99.90
25092;DHT22;13082;52.374;4.946;2024-03-29T03:52:36;10.10;99.90
25092;DHT22;13082;52.374;4.946;2024-03-29T03:55:02;10.10;99.90
25092;DHT22;13082;52.374;4.946;2024-03-29T03:57:27;10.00;99.90
25092;DHT22;13082;52.374;4.946;2024-03-29T03:59:53;10.10;99.90
25092;DHT22;13082;52.374;4.946;2024-03-29T04:02:19;10.10;99.90
25092;DHT22;13082;52.374;4.946;2024-03-29T04:04:47;10.10;99.90
25092;DHT22;13082;52.374;4.946;2024-03-29T04:07:13;10.10;99.90
25092;DHT22;13082;52.374;4.946;2024-03-29T04:09:39;10.10;99.90
25092;DHT22;13082;52.374;4.946;2024-03-29T04:12:04;10.10;99.90
25092;DHT22;13082;52.374;4.946;2024-03-29T04:14:30;10.10;99.90
25092;DHT22;13082;52.374;4.946;2024-03-29T04:16:55;10.10;99.90
25092;DHT22;13082;52.374;4.946;2024-03-29T04:19:21;10.10;99.90
25092;DHT22;13082;52.374;4.946;2024-03-29T04:21:47;10.10;99.90
25092;DHT22;13082;52.374;4.946;2024-03-29T04:24:12;10.00;99.90
25092;DHT22;13082;52.374;4.946;2024-03-29T04:26:39;10.00;99.90
25092;DHT22;13082;52.374;4.946;2024-03-29T04:29:04;10.00;99.90
25092;DHT22;13082;52.374;4.946;2024-03-29T04:31:30;10.00;99.90
25092;DHT22;13082;52.374;4.946;2024-03-29T04:33:56;10.00;99.90
25092;DHT22;13082;52.374;4.946;2024-03-29T04:36:22;10.00;99.90
25092;DHT22;13082;52.374;4.946;2024-03-29T04:38:47;10.00;99.90
25092;DHT22;13082;52.374;4.946;2024-03-29T04:41:13;10.00;99.90
25092;DHT22;13082;52.374;4.946;2024-03-29T04:43:40;10.00;99.90
25092;DHT22;13082;52.374;4.946;2024-03-29T04:46:13;10.00;99.90
25092;DHT22;13082;52.374;4.946;2024-03-29T04:48:39;10.00;99.90
25092;DHT22;13082;52.374;4.946;2024-03-29T04:51:06;10.00;99.90
25092;DHT22;13082;52.374;4.946;2024-03-29T04:53:32;10.00;99.90
25092;DHT22;13082;52.374;4.946;2024-03-29T04:55:58;9.90;99.90
25092;DHT22;13082;52.374;4.946;2024-03-29T04:58:27;10.00;99.90
25092;DHT22;13082;52.374;4.946;2024-03-29T05:00:54;10.00;99.90
25092;DHT22;13082;52.374;4.946;2024-03-29T05:03:20;10.00;99.90
25092;DHT22;13082;52.374;4.946;2024-03-29T05:05:46;10.00;99.90
25092;DHT22;13082;52.374;4.946;2024-03-29T05:08:12;10.00;99.90
25092;DHT22;13082;52.374;4.946;2024-03-29T05:10:39;10.00;99.90
25092;DHT22;13082;52.374;4.946;2024-03-29T05:13:05;10.00;99.90
25092;DHT22;13082;52.374;4.946;2024-03-29T05:15:31;10.00;99.90
25092;DHT22;13082;52.374;4.946;2024-03-29T05:17:57;10.00;99.90
25092;DHT22;13082;52.374;4.946;2024-03-29T05:20:23;10.00;99.90
25092;DHT22;13082;52.374;4.946;2024-03-29T05:22:48;10.00;99.90
25092;DHT22;13082;52.374;4.946;2024-03-29T05:25:14;9.90;99.90
25092;DHT22;13082;52.374;4.946;2024-03-29T05:27:39;9.90;99.90
25092;DHT22;13082;52.374;4.946;2024-03-29T05:30:05;9.90;99.90
25092;DHT22;13082;52.374;4.946;2024-03-29T05:32:31;9.90;99.90
25092;DHT22;13082;52.374;4.946;2024-03-29T05:34:57;9.90;99.90
25092;DHT22;13082;52.374;4.946;2024-03-29T05:37:23;9.80;99.90
25092;DHT22;13082;52.374;4.946;2024-03-29T05:39:51;9.80;99.90
25092;DHT22;13082;52.374;4.946;2024-03-29T05:42:29;9.90;99.90
25092;DHT22;13082;52.374;4.946;2024-03-29T05:44:54;9.90;99.90
25092;DHT22;13082;52.374;4.946;2024-03-29T05:47:20;9.90;99.90
25092;DHT22;13082;52.374;4.946;2024-03-29T05:49:46;9.90;99.90
25092;DHT22;13082;52.374;4.946;2024-03-29T05:52:12;9.90;99.90
25092;DHT22;13082;52.374;4.946;2024-03-29T05:54:42;9.80;99.90
25092;DHT22;13082;52.374;4.946;2024-03-29T05:57:07;9.80;99.90
25092;DHT22;13082;52.374;4.946;2024-03-29T05:59:34;9.80;99.90
25092;DHT22;13082;52.374;4.946;2024-03-29T06:01:59;9.70;99.90
25092;DHT22;13082;52.374;4.946;2024-03-29T06:04:25;9.60;99.90
25092;DHT22;13082;52.374;4.946;2024-03-29T06:07:00;9.60;99.90
25092;DHT22;13082;52.374;4.946;2024-03-29T06:09:26;9.60;99.90
25092;DHT22;13082;52.374;4.946;2024-03-29T06:11:56;9.60;99.90
25092;DHT22;13082;52.374;4.946;2024-03-29T06:14:25;9.60;99.90
25092;DHT22;13082;52.374;4.946;2024-03-29T06:17:09;9.60;99.90
25092;DHT22;13082;52.374;4.946;2024-03-29T06:19:51;9.50;99.90
25092;DHT22;13082;52.374;4.946;2024-03-29T06:22:18;9.50;99.90
25092;DHT22;13082;52.374;4.946;2024-03-29T06:24:44;9.50;99.90
25092;DHT22;13082;52.374;4.946;2024-03-29T06:27:10;9.50;99.90
25092;DHT22;13082;52.374;4.946;2024-03-29T06:29:36;9.40;99.90
25092;DHT22;13082;52.374;4.946;2024-03-29T06:32:01;9.40;99.90
25092;DHT22;13082;52.374;4.946;2024-03-29T06:34:30;9.40;99.90
25092;DHT22;13082;52.374;4.946;2024-03-29T06:36:56;9.40;99.90
25092;DHT22;13082;52.374;4.946;2024-03-29T06:39:22;9.30;99.90
25092;DHT22;13082;52.374;4.946;2024-03-29T06:41:48;9.30;99.90
25092;DHT22;13082;52.374;4.946;2024-03-29T06:44:13;9.30;99.90
25092;DHT22;13082;52.374;4.946;2024-03-29T06:46:39;9.30;99.90
25092;DHT22;13082;52.374;4.946;2024-03-29T06:49:05;9.30;99.90
25092;DHT22;13082;52.374;4.946;2024-03-29T06:51:30;9.30;99.90
25092;DHT22;13082;52.374;4.946;2024-03-29T06:53:56;9.40;99.90
25092;DHT22;13082;52.374;4.946;2024-03-29T06:56:22;9.40;99.90
25092;DHT22;13082;52.374;4.946;2024-03-29T06:58:47;9.50;99.90
25092;DHT22;13082;52.374;4.946;2024-03-29T07:01:13;9.50;99.90
25092;DHT22;13082;52.374;4.946;2024-03-29T07:03:39;9.50;99.90
25092;DHT22;13082;52.374;4.946;2024-03-29T07:06:05;9.50;99.90
25092;DHT22;13082;52.374;4.946;2024-03-29T07:08:30;9.50;99.90
25092;DHT22;13082;52.374;4.946;2024-03-29T07:11:00;9.60;99.90
25092;DHT22;13082;52.374;4.946;2024-03-29T07:13:29;9.60;99.90
25092;DHT22;13082;52.374;4.946;2024-03-29T07:15:55;9.70;99.90
25092;DHT22;13082;52.374;4.946;2024-03-29T07:18:21;9.60;99.90
25092;DHT22;13082;52.374;4.946;2024-03-29T07:20:46;9.60;99.90
25092;DHT22;13082;52.374;4.946;2024-03-29T07:23:12;9.60;99.90
25092;DHT22;13082;52.374;4.946;2024-03-29T07:25:39;9.60;99.90
25092;DHT22;13082;52.374;4.946;2024-03-29T07:28:05;9.70;99.90
25092;DHT22;13082;52.374;4.946;2024-03-29T07:30:31;9.80;99.90
25092;DHT22;13082;52.374;4.946;2024-03-29T07:32:56;9.80;99.90
25092;DHT22;13082;52.374;4.946;2024-03-29T07:35:22;9.80;99.90
25092;DHT22;13082;52.374;4.946;2024-03-29T07:37:47;9.90;99.90
25092;DHT22;13082;52.374;4.946;2024-03-29T07:40:15;9.90;99.90
25092;DHT22;13082;52.374;4.946;2024-03-29T07:42:41;10.00;99.90
25092;DHT22;13082;52.374;4.946;2024-03-29T07:45:07;10.10;99.90
25092;DHT22;13082;52.374;4.946;2024-03-29T07:47:33;10.10;99.90
25092;DHT22;13082;52.374;4.946;2024-03-29T07:49:58;10.00;99.90
25092;DHT22;13082;52.374;4.946;2024-03-29T07:52:24;10.00;99.90
25092;DHT22;13082;52.374;4.946;2024-03-29T07:54:50;10.10;99.90
25092;DHT22;13082;52.374;4.946;2024-03-29T07:57:16;10.10;99.90
25092;DHT22;13082;52.374;4.946;2024-03-29T07:59:42;10.20;99.90
25092;DHT22;13082;52.374;4.946;2024-03-29T08:02:08;10.20;99.90
25092;DHT22;13082;52.374;4.946;2024-03-29T08:04:34;10.20;99.90
25092;DHT22;13082;52.374;4.946;2024-03-29T08:07:00;10.20;99.90
25092;DHT22;13082;52.374;4.946;2024-03-29T08:09:26;10.30;99.90
25092;DHT22;13082;52.374;4.946;2024-03-29T08:11:51;10.30;99.90
25092;DHT22;13082;52.374;4.946;2024-03-29T08:14:17;10.30;99.90
25092;DHT22;13082;52.374;4.946;2024-03-29T08:16:42;10.40;99.90
25092;DHT22;13082;52.374;4.946;2024-03-29T08:19:08;10.50;99.90
25092;DHT22;13082;52.374;4.946;2024-03-29T08:21:34;10.60;99.90
25092;DHT22;13082;52.374;4.946;2024-03-29T08:24:01;10.70;99.90
25092;DHT22;13082;52.374;4.946;2024-03-29T08:26:27;10.70;99.90
25092;DHT22;13082;52.374;4.946;2024-03-29T08:28:54;10.70;99.90
25092;DHT22;13082;52.374;4.946;2024-03-29T08:31:20;10.70;99.90
25092;DHT22;13082;52.374;4.946;2024-03-29T08:33:45;10.70;99.90
25092;DHT22;13082;52.374;4.946;2024-03-29T08:36:11;10.60;99.90
25092;DHT22;13082;52.374;4.946;2024-03-29T08:38:38;10.60;99.90
25092;DHT22;13082;52.374;4.946;2024-03-29T08:41:06;10.50;99.90
25092;DHT22;13082;52.374;4.946;2024-03-29T08:43:33;10.50;99.90
25092;DHT22;13082;52.374;4.946;2024-03-29T08:45:58;10.60;99.90
25092;DHT22;13082;52.374;4.946;2024-03-29T08:48:24;10.60;99.90
25092;DHT22;13082;52.374;4.946;2024-03-29T08:50:50;10.70;99.90
25092;DHT22;13082;52.374;4.946;2024-03-29T08:53:16;10.70;99.90
25092;DHT22;13082;52.374;4.946;2024-03-29T08:55:42;10.60;99.90
25092;DHT22;13082;52.374;4.946;2024-03-29T08:58:07;10.60;99.90
25092;DHT22;13082;52.374;4.946;2024-03-29T09:00:33;10.60;99.90
25092;DHT22;13082;52.374;4.946;2024-03-29T09:02:59;10.70;99.90
25092;DHT22;13082;52.374;4.946;2024-03-29T09:05:25;10.80;99.90
25092;DHT22;13082;52.374;4.946;2024-03-29T09:07:52;10.80;99.90
25092;DHT22;13082;52.374;4.946;2024-03-29T09:10:18;10.90;99.90
25092;DHT22;13082;52.374;4.946;2024-03-29T09:12:44;10.90;99.90
25092;DHT22;13082;52.374;4.946;2024-03-29T09:15:09;10.90;99.90
25092;DHT22;13082;52.374;4.946;2024-03-29T09:17:42;11.00;99.90
25092;DHT22;13082;52.374;4.946;2024-03-29T09:20:08;11.00;99.90
25092;DHT22;13082;52.374;4.946;2024-03-29T09:22:34;11.10;99.90
25092;DHT22;13082;52.374;4.946;2024-03-29T09:25:01;11.00;99.90
25092;DHT22;13082;52.374;4.946;2024-03-29T09:27:27;11.10;99.90
25092;DHT22;13082;52.374;4.946;2024-03-29T09:29:55;11.10;99.90
25092;DHT22;13082;52.374;4.946;2024-03-29T09:32:21;11.20;99.90
25092;DHT22;13082;52.374;4.946;2024-03-29T09:34:48;11.00;99.90
25092;DHT22;13082;52.374;4.946;2024-03-29T09:37:15;11.00;99.90
25092;DHT22;13082;52.374;4.946;2024-03-29T09:39:40;11.00;99.90
25092;DHT22;13082;52.374;4.946;2024-03-29T09:42:06;11.00;99.90
25092;DHT22;13082;52.374;4.946;2024-03-29T09:44:35;11.10;99.90
25092;DHT22;13082;52.374;4.946;2024-03-29T09:47:03;11.00;99.90
25092;DHT22;13082;52.374;4.946;2024-03-29T09:49:30;11.00;99.90
25092;DHT22;13082;52.374;4.946;2024-03-29T09:51:57;11.10;99.90
25092;DHT22;13082;52.374;4.946;2024-03-29T09:54:24;11.20;99.90
25092;DHT22;13082;52.374;4.946;2024-03-29T09:56:51;11.20;99.90
25092;DHT22;13082;52.374;4.946;2024-03-29T09:59:17;11.30;99.90
25092;DHT22;13082;52.374;4.946;2024-03-29T10:01:43;11.40;99.90
25092;DHT22;13082;52.374;4.946;2024-03-29T10:04:09;11.30;99.90
25092;DHT22;13082;52.374;4.946;2024-03-29T10:06:38;11.40;99.90
25092;DHT22;13082;52.374;4.946;2024-03-29T10:09:04;11.40;99.90
25092;DHT22;13082;52.374;4.946;2024-03-29T10:11:30;11.40;99.90
25092;DHT22;13082;52.374;4.946;2024-03-29T10:13:56;11.50;99.90
25092;DHT22;13082;52.374;4.946;2024-03-29T10:16:21;11.60;99.90
25092;DHT22;13082;52.374;4.946;2024-03-29T10:18:49;11.50;99.90
25092;DHT22;13082;52.374;4.946;2024-03-29T10:21:15;11.60;99.90
25092;DHT22;13082;52.374;4.946;2024-03-29T10:23:41;11.50;99.90
25092;DHT22;13082;52.374;4.946;2024-03-29T10:26:08;11.50;99.90
25092;DHT22;13082;52.374;4.946;2024-03-29T10:28:35;11.50;99.90
25092;DHT22;13082;52.374;4.946;2024-03-29T10:31:03;11.50;99.90
25092;DHT22;13082;52.374;4.946;2024-03-29T10:33:32;11.40;99.90
25092;DHT22;13082;52.374;4.946;2024-03-29T10:36:02;11.40;99.90
25092;DHT22;13082;52.374;4.946;2024-03-29T10:38:31;11.50;99.90
25092;DHT22;13082;52.374;4.946;2024-03-29T10:40:57;11.60;99.90
25092;DHT22;13082;52.374;4.946;2024-03-29T10:43:24;11.70;99.90
25092;DHT22;13082;52.374;4.946;2024-03-29T10:45:50;11.90;99.90
25092;DHT22;13082;52.374;4.946;2024-03-29T10:48:20;11.90;99.90
25092;DHT22;13082;52.374;4.946;2024-03-29T10:50:48;11.90;99.90
25092;DHT22;13082;52.374;4.946;2024-03-29T10:53:16;11.90;99.90
25092;DHT22;13082;52.374;4.946;2024-03-29T10:55:42;11.90;99.90
25092;DHT22;13082;52.374;4.946;2024-03-29T10:58:11;11.90;99.90
25092;DHT22;13082;52.374;4.946;2024-03-29T11:00:46;11.90;99.90
25092;DHT22;13082;52.374;4.946;2024-03-29T11:05:51;11.80;99.90
25092;DHT22;13082;52.374;4.946;2024-03-29T11:08:26;11.80;99.90
25092;DHT22;13082;52.374;4.946;2024-03-29T11:10:55;11.90;99.90
25092;DHT22;13082;52.374;4.946;2024-03-29T11:16:00;11.90;99.90
25092;DHT22;13082;52.374;4.946;2024-03-29T11:18:27;11.90;99.90
25092;DHT22;13082;52.374;4.946;2024-03-29T11:20:54;11.80;99.90
25092;DHT22;13082;52.374;4.946;2024-03-29T11:23:22;11.80;99.90
25092;DHT22;13082;52.374;4.946;2024-03-29T11:25:54;11.80;99.90
25092;DHT22;13082;52.374;4.946;2024-03-29T11:28:34;11.90;99.90
25092;DHT22;13082;52.374;4.946;2024-03-29T11:31:02;12.00;99.90
25092;DHT22;13082;52.374;4.946;2024-03-29T11:33:43;12.00;99.90
25092;DHT22;13082;52.374;4.946;2024-03-29T11:36:23;12.20;99.90
25092;DHT22;13082;52.374;4.946;2024-03-29T11:38:54;12.40;99.90
25092;DHT22;13082;52.374;4.946;2024-03-29T11:41:24;12.60;99.90
25092;DHT22;13082;52.374;4.946;2024-03-29T11:43:59;12.70;99.90
25092;DHT22;13082;52.374;4.946;2024-03-29T11:46:25;12.90;99.90
25092;DHT22;13082;52.374;4.946;2024-03-29T11:48:51;12.80;99.90
25092;DHT22;13082;52.374;4.946;2024-03-29T11:51:21;12.80;99.90
25092;DHT22;13082;52.374;4.946;2024-03-29T11:53:49;12.70;99.90
25092;DHT22;13082;52.374;4.946;2024-03-29T11:56:18;12.80;99.90
25092;DHT22;13082;52.374;4.946;2024-03-29T11:58:45;12.90;99.90
25092;DHT22;13082;52.374;4.946;2024-03-29T12:01:11;12.90;99.90
25092;DHT22;13082;52.374;4.946;2024-03-29T12:03:40;12.90;99.90
25092;DHT22;13082;52.374;4.946;2024-03-29T12:06:06;12.80;99.90
25092;DHT22;13082;52.374;4.946;2024-03-29T12:08:34;12.80;99.90
25092;DHT22;13082;52.374;4.946;2024-03-29T12:11:01;12.80;99.90
25092;DHT22;13082;52.374;4.946;2024-03-29T12:13:27;12.90;99.90
25092;DHT22;13082;52.374;4.946;2024-03-29T12:15:54;12.90;99.90
25092;DHT22;13082;52.374;4.946;2024-03-29T12:18:21;12.90;99.90
25092;DHT22;13082;52.374;4.946;2024-03-29T12:20:48;13.10;99.90
25092;DHT22;13082;52.374;4.946;2024-03-29T12:23:16;13.30;99.90
25092;DHT22;13082;52.374;4.946;2024-03-29T12:25:42;13.50;99.90
25092;DHT22;13082;52.374;4.946;2024-03-29T12:28:09;13.50;99.90
25092;DHT22;13082;52.374;4.946;2024-03-29T12:30:35;13.40;99.90
25092;DHT22;13082;52.374;4.946;2024-03-29T12:33:11;13.30;99.90
25092;DHT22;13082;52.374;4.946;2024-03-29T12:35:37;13.40;99.90
25092;DHT22;13082;52.374;4.946;2024-03-29T12:38:04;13.70;99.90
25092;DHT22;13082;52.374;4.946;2024-03-29T12:40:31;13.80;99.90
25092;DHT22;13082;52.374;4.946;2024-03-29T12:43:03;13.90;99.90
25092;DHT22;13082;52.374;4.946;2024-03-29T12:45:30;13.90;99.90
25092;DHT22;13082;52.374;4.946;2024-03-29T12:47:56;13.90;99.90
25092;DHT22;13082;52.374;4.946;2024-03-29T12:52:57;13.90;99.90
25092;DHT22;13082;52.374;4.946;2024-03-29T12:55:23;14.00;99.90
25092;DHT22;13082;52.374;4.946;2024-03-29T12:57:50;14.00;99.90
25092;DHT22;13082;52.374;4.946;2024-03-29T13:00:21;13.80;99.90
25092;DHT22;13082;52.374;4.946;2024-03-29T13:02:47;13.60;99.90
25092;DHT22;13082;52.374;4.946;2024-03-29T13:05:13;13.60;99.90
25092;DHT22;13082;52.374;4.946;2024-03-29T13:07:39;13.50;99.90
25092;DHT22;13082;52.374;4.946;2024-03-29T13:10:05;13.60;99.90
25092;DHT22;13082;52.374;4.946;2024-03-29T13:12:46;13.60;99.90
25092;DHT22;13082;52.374;4.946;2024-03-29T13:15:26;13.60;99.90
25092;DHT22;13082;52.374;4.946;2024-03-29T13:17:53;13.60;99.90
25092;DHT22;13082;52.374;4.946;2024-03-29T13:20:20;13.60;99.90
25092;DHT22;13082;52.374;4.946;2024-03-29T13:22:47;13.60;99.90
25092;DHT22;13082;52.374;4.946;2024-03-29T13:25:16;13.70;99.90
25092;DHT22;13082;52.374;4.946;2024-03-29T13:27:43;13.90;99.90
25092;DHT22;13082;52.374;4.946;2024-03-29T13:30:10;14.00;99.90
25092;DHT22;13082;52.374;4.946;2024-03-29T13:32:38;14.00;99.90
25092;DHT22;13082;52.374;4.946;2024-03-29T13:35:05;13.90;99.90
25092;DHT22;13082;52.374;4.946;2024-03-29T13:37:37;13.80;99.90
25092;DHT22;13082;52.374;4.946;2024-03-29T13:40:03;13.80;99.90
25092;DHT22;13082;52.374;4.946;2024-03-29T13:42:30;13.80;99.90
25092;DHT22;13082;52.374;4.946;2024-03-29T13:44:56;13.90;99.90
25092;DHT22;13082;52.374;4.946;2024-03-29T13:47:22;14.00;99.90
25092;DHT22;13082;52.374;4.946;2024-03-29T13:49:48;14.00;99.90
25092;DHT22;13082;52.374;4.946;2024-03-29T13:52:16;13.90;99.90
25092;DHT22;13082;52.374;4.946;2024-03-29T13:54:44;14.00;99.90
25092;DHT22;13082;52.374;4.946;2024-03-29T13:57:16;13.90;99.90
25092;DHT22;13082;52.374;4.946;2024-03-29T13:59:45;13.90;99.90
25092;DHT22;13082;52.374;4.946;2024-03-29T14:02:12;13.90;99.90
25092;DHT22;13082;52.374;4.946;2024-03-29T14:04:42;13.90;99.90
25092;DHT22;13082;52.374;4.946;2024-03-29T14:07:09;13.90;99.90
25092;DHT22;13082;52.374;4.946;2024-03-29T14:09:37;13.90;99.90
25092;DHT22;13082;52.374;4.946;2024-03-29T14:12:03;13.90;99.90
25092;DHT22;13082;52.374;4.946;2024-03-29T14:14:29;13.90;99.90
25092;DHT22;13082;52.374;4.946;2024-03-29T14:16:55;13.90;99.90
25092;DHT22;13082;52.374;4.946;2024-03-29T14:19:21;13.90;99.90
25092;DHT22;13082;52.374;4.946;2024-03-29T14:21:46;13.90;99.90
25092;DHT22;13082;52.374;4.946;2024-03-29T14:24:12;14.00;99.90
25092;DHT22;13082;52.374;4.946;2024-03-29T14:26:38;13.90;99.90
25092;DHT22;13082;52.374;4.946;2024-03-29T14:29:04;13.90;99.90
25092;DHT22;13082;52.374;4.946;2024-03-29T14:31:32;14.00;99.90
25092;DHT22;13082;52.374;4.946;2024-03-29T14:33:57;14.00;99.90
25092;DHT22;13082;52.374;4.946;2024-03-29T14:36:23;14.00;99.90
25092;DHT22;13082;52.374;4.946;2024-03-29T14:38:49;14.20;99.90
25092;DHT22;13082;52.374;4.946;2024-03-29T14:41:15;14.30;99.90
25092;DHT22;13082;52.374;4.946;2024-03-29T14:43:41;14.40;99.90
25092;DHT22;13082;52.374;4.946;2024-03-29T14:46:09;14.40;99.90
25092;DHT22;13082;52.374;4.946;2024-03-29T14:48:35;14.40;99.90
25092;DHT22;13082;52.374;4.946;2024-03-29T14:51:00;14.40;99.90
25092;DHT22;13082;52.374;4.946;2024-03-29T14:53:26;14.40;99.90
25092;DHT22;13082;52.374;4.946;2024-03-29T14:55:51;14.50;99.90
25092;DHT22;13082;52.374;4.946;2024-03-29T14:58:17;14.50;99.90
25092;DHT22;13082;52.374;4.946;2024-03-29T15:00:42;14.50;99.90
25092;DHT22;13082;52.374;4.946;2024-03-29T15:03:12;14.40;99.90
25092;DHT22;13082;52.374;4.946;2024-03-29T15:05:38;14.40;99.90
25092;DHT22;13082;52.374;4.946;2024-03-29T15:08:04;14.40;99.90
25092;DHT22;13082;52.374;4.946;2024-03-29T15:10:29;14.30;99.90
25092;DHT22;13082;52.374;4.946;2024-03-29T15:12:56;14.40;99.90
25092;DHT22;13082;52.374;4.946;2024-03-29T15:15:22;14.50;99.90
25092;DHT22;13082;52.374;4.946;2024-03-29T15:17:48;14.50;99.90
25092;DHT22;13082;52.374;4.946;2024-03-29T15:20:13;14.60;99.90
25092;DHT22;13082;52.374;4.946;2024-03-29T15:22:41;14.70;99.90
25092;DHT22;13082;52.374;4.946;2024-03-29T15:25:10;14.70;99.90
25092;DHT22;13082;52.374;4.946;2024-03-29T15:27:36;14.60;99.90
25092;DHT22;13082;52.374;4.946;2024-03-29T15:30:20;14.50;99.90
25092;DHT22;13082;52.374;4.946;2024-03-29T15:32:46;14.60;99.90
25092;DHT22;13082;52.374;4.946;2024-03-29T15:35:11;14.50;99.90
25092;DHT22;13082;52.374;4.946;2024-03-29T15:37:37;14.50;99.90